Time;durP1;ratioP1;P1;durP2;ratioP2;P2;SDS_P1;SDS_P2;PMS_P1;PMS_P2;Temp;Humidity;BMP_temperature;BMP_pressure;BME280_temperature;BME280_humidity;BME280_pressure;Samples;Min_cycle;Max_cycle;Signal;HPM_P1;HPM_P2
2021/09/30 00:00:30;;;;;;;11.50;6.40;;;;;;;6.41;75.36;98284.00;117120;1177;71400;-69
2021/09/30 00:03:12;;;;;;;13.60;6.40;;;;;;;6.30;76.24;98287.85;117047;1176;68468;-70
2021/09/30 00:05:43;;;;;;;14.30;6.60;;;;;;;6.22;76.32;98288.86;117117;1177;69234;-72
2021/09/30 00:08:12;;;;;;;14.20;6.60;;;;;;;6.12;78.10;98290.98;117148;1176;59472;-71
2021/09/30 00:10:53;;;;;;;13.40;6.80;;;;;;;6.03;78.66;98291.80;117062;1177;59493;-72
2021/09/30 00:14:06;;;;;;;12.90;7.40;;;;;;;5.94;77.74;98290.84;116957;1176;71176;-72
2021/09/30 00:41:35;;;;;;;18.60;9.20;;;;;;;5.80;79.51;98302.16;117098;1169;71194;-72
2021/09/30 00:54:48;;;;;;;20.30;9.90;;;;;;;5.39;80.57;98297.74;117019;1177;70635;-72
2021/09/30 02:58:27;;;;;;;17.00;8.30;;;;;;;4.21;83.77;98285.91;117020;1172;59577;-71
2021/09/30 03:01:27;;;;;;;12.70;7.30;;;;;;;4.25;83.52;98281.02;117324;1176;59527;-72
2021/09/30 03:04:00;;;;;;;;;;;;;;;4.33;83.13;98283.83;116983;1177;69394;-69
2021/09/30 03:06:30;;;;;;;11.00;5.90;;;;;;;4.46;82.91;98282.38;117143;1177;68806;-72
2021/09/30 03:09:05;;;;;;;17.30;7.10;;;;;;;4.62;82.73;98283.77;116905;1177;69255;-70
2021/09/30 03:11:38;;;;;;;15.40;7.20;;;;;;;4.78;82.15;98286.08;116957;1177;59545;-71
2021/09/30 03:14:11;;;;;;;17.00;7.00;;;;;;;4.93;81.87;98286.57;117151;1177;59497;-71
2021/09/30 03:16:47;;;;;;;19.40;6.90;;;;;;;5.06;81.55;98287.61;117059;1177;70625;-69
2021/09/30 03:22:13;;;;;;;13.00;6.00;;;;;;;5.18;81.04;98287.98;117125;1176;67523;-71
2021/09/30 03:24:46;;;;;;;15.10;5.60;;;;;;;5.18;80.51;98288.36;117131;1177;59511;-73
2021/09/30 03:27:18;;;;;;;19.10;6.40;;;;;;;5.18;80.43;98286.86;116983;1177;59879;-68
2021/09/30 03:29:48;;;;;;;14.60;6.40;;;;;;;5.18;80.23;98289.61;117022;1177;71564;-72
2021/09/30 03:32:19;;;;;;;13.80;6.00;;;;;;;5.19;80.10;98287.90;117170;1177;69177;-71
2021/09/30 03:35:00;;;;;;;12.80;5.90;;;;;;;5.18;79.56;98288.91;116980;1177;68408;-73
2021/09/30 03:37:30;;;;;;;10.70;6.00;;;;;;;5.17;79.97;98290.71;116859;1177;59568;-69
2021/09/30 03:40:00;;;;;;;12.30;5.50;;;;;;;5.19;79.57;98292.21;117164;1176;59518;-70
2021/09/30 03:42:29;;;;;;;11.50;6.30;;;;;;;5.20;79.52;98293.40;116977;1177;70589;-68
2021/09/30 03:45:05;;;;;;;22.20;6.00;;;;;;;5.21;79.47;98294.36;117061;1177;69457;-71
2021/09/30 03:47:35;;;;;;;13.60;6.00;;;;;;;5.25;78.75;98294.84;117010;1177;69240;-71
2021/09/30 03:50:17;;;;;;;14.80;5.90;;;;;;;5.29;78.95;98295.80;117060;1177;59538;-68
2021/09/30 03:55:31;;;;;;;11.40;5.80;;;;;;;5.32;79.04;98297.07;117012;1177;71212;-71
2021/09/30 04:00:49;;;;;;;10.70;5.60;;;;;;;5.34;78.39;98291.66;116996;1177;69171;-67
2021/09/30 04:03:18;;;;;;;18.50;5.90;;;;;;;5.34;78.21;98294.80;117133;1176;59529;-69
2021/09/30 04:05:51;;;;;;;17.10;5.80;;;;;;;5.34;78.36;98295.59;117172;1177;59544;-72
2021/09/30 04:08:21;;;;;;;13.70;6.40;;;;;;;5.32;78.74;98299.83;117139;1177;71364;-71
2021/09/30 04:10:50;;;;;;;14.10;6.40;;;;;;;5.22;78.88;98301.58;116982;1177;67368;-70
2021/09/30 04:13:21;;;;;;;14.50;9.20;;;;;;;5.15;78.56;98306.94;117069;1177;69054;-69
2021/09/30 04:15:50;;;;;;;23.50;13.60;;;;;;;5.16;78.61;98303.65;116986;1177;59542;-71
2021/09/30 04:18:20;;;;;;;20.10;8.20;;;;;;;5.18;78.61;98305.54;117069;1177;59455;-72
2021/09/30 04:20:50;;;;;;;15.30;7.20;;;;;;;5.16;79.10;98304.11;116971;1168;71545;-69
2021/09/30 04:23:21;;;;;;;13.90;6.80;;;;;;;5.13;80.24;98309.60;116989;1177;68297;-71
2021/09/30 04:25:51;;;;;;;;;;;;;;;5.07;79.84;98310.35;116974;1176;68529;-69
2021/09/30 04:28:21;;;;;;;14.10;6.60;;;;;;;4.98;79.41;98313.89;117087;1177;59520;-71
2021/09/30 04:30:55;;;;;;;13.50;6.40;;;;;;;4.91;80.79;98315.58;117043;1177;59461;-71
2021/09/30 04:33:28;;;;;;;15.30;7.20;;;;;;;4.86;80.58;98317.41;117041;1177;71328;-71
2021/09/30 04:35:57;;;;;;;17.90;7.40;;;;;;;4.82;81.33;98313.69;117010;1177;69318;-71
2021/09/30 04:38:27;;;;;;;17.80;8.80;;;;;;;4.80;80.56;98315.02;116962;1177;69176;-71
2021/09/30 04:40:57;;;;;;;21.30;11.70;;;;;;;4.80;80.27;98317.92;117085;1176;59536;-70
2021/09/30 04:43:26;;;;;;;22.00;9.90;;;;;;;4.85;80.16;98316.30;116985;1177;59513;-69
2021/09/30 04:45:55;;;;;;;17.00;9.20;;;;;;;4.90;80.20;98316.91;117017;1177;71340;-68
2021/09/30 04:48:25;;;;;;;23.10;10.00;;;;;;;5.04;80.12;98317.08;116989;1177;69428;-67
2021/09/30 04:51:02;;;;;;;21.90;12.60;;;;;;;5.25;80.26;98320.81;117142;1176;69285;-72
2021/09/30 04:53:36;;;;;;;19.80;12.70;;;;;;;5.49;80.01;98318.27;117045;1177;59481;-68
2021/09/30 04:56:05;;;;;;;19.90;8.20;;;;;;;5.69;79.88;98320.80;117006;1177;59586;-67
2021/09/30 04:58:39;;;;;;;20.20;7.70;;;;;;;5.83;79.34;98322.03;116945;1177;69980;-71
2021/09/30 05:01:08;;;;;;;15.80;7.30;;;;;;;6.04;79.31;98327.39;117074;1177;68334;-72
2021/09/30 05:03:45;;;;;;;17.30;7.70;;;;;;;6.27;78.84;98329.50;116862;1177;68389;-71
2021/09/30 05:06:14;;;;;;;14.20;8.00;;;;;;;6.53;78.65;98327.56;116952;1177;59545;-74
2021/09/30 05:08:45;;;;;;;18.10;8.40;;;;;;;6.83;78.70;98330.10;117059;1177;59506;-74
2021/09/30 05:11:15;;;;;;;15.90;9.00;;;;;;;7.11;76.09;98330.31;117099;1177;71493;-73
2021/09/30 05:13:44;;;;;;;16.80;8.50;;;;;;;7.38;75.86;98332.88;117079;1176;69007;-71
2021/09/30 05:16:14;;;;;;;13.80;8.60;;;;;;;7.73;77.47;98332.68;116930;1177;68341;-71
2021/09/30 05:19:02;;;;;;;18.10;7.20;;;;;;;8.16;77.01;98332.81;117083;1177;59529;-73
2021/09/30 05:21:31;;;;;;;17.90;8.10;;;;;;;8.54;76.13;98334.02;116977;1177;59465;-73
2021/09/30 05:24:01;;;;;;;24.80;11.70;;;;;;;8.85;75.55;98334.66;117177;1177;71349;-69
2021/09/30 05:26:30;;;;;;;28.60;11.70;;;;;;;9.21;75.30;98334.35;116975;1177;69133;-68
2021/09/30 05:29:01;;;;;;;21.70;11.10;;;;;;;9.51;71.15;98332.79;117087;1177;68276;-68
2021/09/30 05:31:31;;;;;;;19.20;10.70;;;;;;;9.69;70.38;98335.34;116941;1177;59536;-69
2021/09/30 05:34:29;;;;;;;22.20;10.00;;;;;;;9.97;69.44;98336.52;116959;1177;59538;-72
2021/09/30 05:36:58;;;;;;;19.70;10.50;;;;;;;10.29;70.46;98336.99;116891;1178;69748;-72
2021/09/30 05:39:28;;;;;;;20.80;9.50;;;;;;;10.59;67.32;98339.17;116986;1177;68643;-72
2021/09/30 05:41:58;;;;;;;19.40;11.20;;;;;;;10.81;66.17;98341.52;117105;1176;69225;-69
2021/09/30 05:44:29;;;;;;;22.40;10.60;;;;;;;11.11;68.00;98344.84;116879;1177;59519;-71
2021/09/30 05:46:59;;;;;;;24.50;10.80;;;;;;;11.38;64.00;98343.52;117020;1176;59534;-73
2021/09/30 05:49:28;;;;;;;26.70;10.70;;;;;;;11.71;63.07;98343.38;116978;1177;71963;-73
2021/09/30 05:52:18;;;;;;;;;;;;;;;12.00;62.40;98339.49;116989;1177;68765;-73
2021/09/30 05:55:10;;;;;;;26.70;11.10;;;;;;;12.32;62.84;98339.20;117017;1177;68612;-74
2021/09/30 05:57:39;;;;;;;24.70;11.70;;;;;;;12.62;59.94;98339.73;116911;1177;59539;-73
2021/09/30 06:14:09;;;;;;;19.60;7.20;;;;;;;13.95;52.70;98347.97;116791;1179;59532;-72
2021/09/30 06:16:45;;;;;;;18.20;7.60;;;;;;;14.25;54.38;98348.23;116903;1177;71256;-74
2021/09/30 06:19:31;;;;;;;19.10;8.50;;;;;;;14.51;51.83;98347.94;117064;1170;69241;-73
2021/09/30 06:22:10;;;;;;;15.80;6.90;;;;;;;14.77;51.51;98351.75;117062;1177;68546;-73
2021/09/30 06:24:39;;;;;;;17.70;8.00;;;;;;;15.11;50.34;98352.17;117027;1176;59513;-72
2021/09/30 06:27:29;;;;;;;18.50;8.50;;;;;;;15.35;49.25;98354.40;116966;1177;59509;-73
2021/09/30 06:29:59;;;;;;;17.20;9.00;;;;;;;15.73;49.77;98352.73;116977;1170;70785;-73
2021/09/30 06:32:29;;;;;;;17.70;9.00;;;;;;;15.91;47.81;98352.77;116911;1177;68859;-73
2021/09/30 06:35:17;;;;;;;23.00;8.90;;;;;;;16.21;47.46;98349.63;116919;1177;69376;-73
2021/09/30 06:37:50;;;;;;;26.30;8.10;;;;;;;16.46;47.69;98348.36;116989;1177;59535;-75
2021/09/30 06:40:20;;;;;;;20.90;7.00;;;;;;;16.78;46.15;98350.64;116918;1176;59490;-73
2021/09/30 06:42:50;;;;;;;18.40;5.60;;;;;;;17.15;44.89;98344.71;116842;1179;71475;-72
2021/09/30 06:45:58;;;;;;;13.50;5.80;;;;;;;17.32;43.83;98349.19;116673;1179;68513;-71
2021/09/30 06:48:45;;;;;;;17.10;5.80;;;;;;;17.53;43.07;98349.81;116532;1180;69023;-72
2021/09/30 06:51:25;;;;;;;20.30;5.80;;;;;;;17.62;41.56;98350.64;116765;1177;59632;-72
2021/09/30 06:53:55;;;;;;;20.10;5.60;;;;;;;17.73;42.06;98350.35;116973;1177;59563;-71
2021/09/30 06:56:47;;;;;;;20.50;5.50;;;;;;;17.91;40.34;98351.26;116973;1177;70413;-69
2021/09/30 06:59:36;;;;;;;17.30;5.20;;;;;;;17.83;40.13;98352.77;116725;1177;68514;-72
2021/09/30 07:02:24;;;;;;;21.70;6.10;;;;;;;17.83;39.73;98355.37;116950;1177;69252;-69
2021/09/30 07:05:19;;;;;;;12.20;5.20;;;;;;;17.90;40.33;98354.55;116666;1178;59490;-74
2021/09/30 07:08:06;;;;;;;13.50;5.10;;;;;;;18.04;39.32;98349.88;117002;1177;59503;-73
2021/09/30 07:10:35;;;;;;;14.30;5.30;;;;;;;18.00;38.79;98348.20;116992;1177;70634;-73
2021/09/30 07:13:04;;;;;;;19.80;5.30;;;;;;;18.15;39.15;98350.27;116977;1177;69016;-75
2021/09/30 07:15:33;;;;;;;18.40;5.70;;;;;;;18.32;38.60;98351.45;116897;1177;69104;-71
2021/09/30 07:18:15;;;;;;;17.30;5.30;;;;;;;18.37;38.24;98350.59;116908;1177;59552;-70
2021/09/30 07:20:50;;;;;;;18.00;5.60;;;;;;;18.57;38.61;98348.34;116980;1177;59530;-76
2021/09/30 07:23:20;;;;;;;26.40;5.10;;;;;;;18.65;38.10;98351.41;116995;1177;71348;-75
2021/09/30 07:25:49;;;;;;;;;;;;;;;18.87;38.04;98348.54;117000;1177;68382;-76
2021/09/30 07:28:19;;;;;;;17.40;5.60;;;;;;;18.88;37.79;98354.33;116956;1177;67710;-73
2021/09/30 07:30:49;;;;;;;18.50;5.00;;;;;;;18.93;37.13;98352.77;116948;1177;59507;-74
2021/09/30 07:33:20;;;;;;;14.10;5.50;;;;;;;19.14;37.05;98352.16;116979;1177;59532;-74
2021/09/30 07:35:49;;;;;;;15.60;5.50;;;;;;;19.18;37.08;98352.95;116984;1177;70711;-75
2021/09/30 07:38:19;;;;;;;19.90;5.20;;;;;;;19.28;37.25;98356.05;116991;1177;69258;-74
2021/09/30 07:40:49;;;;;;;22.30;5.40;;;;;;;19.48;36.99;98353.84;117279;1177;68509;-74
2021/09/30 07:43:18;;;;;;;18.60;5.70;;;;;;;19.52;36.17;98355.02;117012;1177;59549;-73
2021/09/30 07:45:48;;;;;;;16.60;5.50;;;;;;;19.51;35.85;98351.27;117061;1177;59471;-73
2021/09/30 07:48:17;;;;;;;20.70;5.50;;;;;;;19.55;35.16;98354.05;117032;1177;71522;-74
2021/09/30 07:50:47;;;;;;;16.40;5.40;;;;;;;18.77;36.09;98355.13;117186;1177;68421;-74
2021/09/30 07:53:16;;;;;;;14.70;5.40;;;;;;;18.66;36.68;98353.44;117121;1177;68475;-74
2021/09/30 07:55:46;;;;;;;21.60;5.90;;;;;;;18.85;37.00;98353.33;117108;1176;59945;-72
2021/09/30 07:58:15;;;;;;;20.90;5.40;;;;;;;18.93;36.73;98352.89;117096;1177;59464;-75
2021/09/30 08:00:44;;;;;;;19.20;5.10;;;;;;;19.31;36.43;98353.26;117102;1176;70835;-73
2021/09/30 08:03:14;;;;;;;16.50;6.30;;;;;;;19.46;36.19;98349.61;117093;1176;68303;-75
2021/09/30 08:05:43;;;;;;;16.50;5.50;;;;;;;19.74;35.73;98353.59;116955;1177;68454;-73
2021/09/30 08:08:12;;;;;;;13.80;5.70;;;;;;;19.77;35.61;98351.75;117205;1173;59538;-73
2021/09/30 08:10:41;;;;;;;16.40;5.10;;;;;;;20.01;35.60;98352.98;117162;1177;59504;-74
2021/09/30 08:13:10;;;;;;;17.50;6.10;;;;;;;20.16;34.92;98354.81;117147;1176;71242;-73
2021/09/30 08:15:39;;;;;;;18.00;5.10;;;;;;;20.28;34.40;98353.73;117082;1176;69220;-73
2021/09/30 08:18:09;;;;;;;19.70;5.60;;;;;;;20.26;34.84;98355.34;116956;1177;68449;-73
2021/09/30 08:20:41;;;;;;;16.30;5.40;;;;;;;20.29;34.79;98353.20;116939;1177;59526;-73
2021/09/30 08:23:12;;;;;;;17.10;5.80;;;;;;;20.38;34.64;98351.02;116975;1177;59543;-74
2021/09/30 08:25:42;;;;;;;23.40;6.50;;;;;;;20.69;33.91;98347.11;117037;1177;71450;-74
2021/09/30 08:28:12;;;;;;;15.20;5.00;;;;;;;20.51;34.34;98350.74;117039;1177;69584;-73
2021/09/30 08:30:41;;;;;;;15.30;5.20;;;;;;;20.69;33.95;98343.64;116988;1177;68579;-73
2021/09/30 08:33:11;;;;;;;20.40;6.00;;;;;;;20.85;34.81;98349.46;116979;1177;59534;-71
2021/09/30 08:35:40;;;;;;;19.20;5.70;;;;;;;21.25;34.09;98347.57;117183;1176;59537;-73
2021/09/30 08:38:09;;;;;;;17.60;5.60;;;;;;;21.64;33.02;98348.05;117066;1176;71347;-73
2021/09/30 08:40:40;;;;;;;15.20;5.70;;;;;;;21.43;33.04;98341.67;116995;1177;68225;-73
2021/09/30 08:43:09;;;;;;;13.70;5.40;;;;;;;21.64;33.24;98345.89;117007;1177;69305;-73
2021/09/30 08:45:38;;;;;;;15.30;5.50;;;;;;;21.80;32.57;98343.62;117010;1177;59551;-72
2021/09/30 08:48:07;;;;;;;12.30;4.90;;;;;;;21.95;32.27;98345.48;117053;1177;59506;-73
2021/09/30 08:50:40;;;;;;;13.60;5.10;;;;;;;21.97;31.97;98341.41;116999;1177;71198;-74
2021/09/30 08:53:12;;;;;;;17.40;5.40;;;;;;;21.70;33.12;98341.25;117069;1176;69038;-73
2021/09/30 08:55:45;;;;;;;17.70;5.00;;;;;;;22.01;32.45;98338.76;116929;1177;69286;-74
2021/09/30 08:58:14;;;;;;;14.10;5.30;;;;;;;22.31;31.95;98339.18;117072;1176;59507;-73
2021/09/30 09:00:44;;;;;;;15.90;5.10;;;;;;;22.57;31.57;98332.28;117018;1177;59539;-73
2021/09/30 09:03:14;;;;;;;16.30;5.00;;;;;;;22.75;31.81;98331.88;117034;1177;71394;-73
2021/09/30 09:05:43;;;;;;;16.10;5.40;;;;;;;23.12;31.54;98332.55;117085;1177;68344;-73
2021/09/30 09:08:14;;;;;;;17.50;5.10;;;;;;;23.84;30.38;98332.67;117091;1177;68521;-76
2021/09/30 09:10:45;;;;;;;21.20;5.10;;;;;;;24.18;28.95;98331.18;116990;1177;59525;-73
2021/09/30 09:13:17;;;;;;;18.90;5.10;;;;;;;24.51;29.00;98331.91;117003;1176;59535;-71
2021/09/30 09:15:51;;;;;;;15.00;5.10;;;;;;;24.27;28.04;98330.02;117187;1177;70404;-74
2021/09/30 09:18:41;;;;;;;13.40;4.50;;;;;;;23.83;28.49;98327.71;117165;1177;68495;-72
2021/09/30 09:21:15;;;;;;;14.50;4.70;;;;;;;23.87;28.52;98327.08;117148;1177;69248;-74
2021/09/30 09:23:56;;;;;;;15.80;4.80;;;;;;;23.74;29.34;98328.73;117136;1177;59529;-73
2021/09/30 09:26:37;;;;;;;14.30;5.30;;;;;;;24.45;28.56;98332.89;117006;1177;59513;-73
2021/09/30 09:29:19;;;;;;;15.80;4.70;;;;;;;24.60;27.80;98337.23;116976;1177;71479;-72
2021/09/30 09:31:51;;;;;;;18.40;5.00;;;;;;;24.58;27.84;98333.57;117044;1177;68557;-72
2021/09/30 09:34:27;;;;;;;15.00;5.30;;;;;;;24.67;27.98;98332.70;116898;1177;69144;-73
2021/09/30 09:37:19;;;;;;;16.40;4.90;;;;;;;24.69;28.17;98331.61;116965;1177;60004;-74
2021/09/30 09:39:49;;;;;;;17.50;4.80;;;;;;;25.26;27.70;98325.85;116839;1178;59512;-72
2021/09/30 09:42:20;;;;;;;;;;;;;;;25.71;27.35;98326.19;116973;1177;70399;-72
2021/09/30 09:44:56;;;;;;;13.80;4.60;;;;;;;25.70;26.45;98325.11;116899;1179;69267;-71
2021/09/30 09:47:29;;;;;;;16.90;4.80;;;;;;;25.68;26.41;98330.78;116960;1177;69168;-73
2021/09/30 09:50:14;;;;;;;10.00;4.40;;;;;;;25.69;26.21;98325.48;116984;1177;59516;-73
2021/09/30 09:53:02;;;;;;;25.20;5.20;;;;;;;25.67;26.57;98320.58;117000;1177;59606;-72
2021/09/30 09:55:35;;;;;;;13.60;4.40;;;;;;;26.14;25.53;98317.77;116943;1177;71473;-75
2021/09/30 09:58:16;;;;;;;13.00;4.00;;;;;;;26.25;25.39;98308.22;116931;1177;69142;-73
2021/09/30 10:00:59;;;;;;;10.90;4.30;;;;;;;26.61;25.14;98304.96;116968;1177;68335;-75
2021/09/30 10:03:31;;;;;;;20.70;4.80;;;;;;;26.52;25.75;98306.06;117072;1177;59545;-72
2021/09/30 10:06:05;;;;;;;12.70;4.80;;;;;;;26.92;25.64;98311.67;116965;1177;59506;-75
2021/09/30 10:08:34;;;;;;;15.00;4.70;;;;;;;26.78;24.72;98319.54;117035;1177;71430;-74
2021/09/30 10:11:03;;;;;;;11.00;4.10;;;;;;;26.65;25.20;98312.93;116868;1177;68533;-74
2021/09/30 10:13:37;;;;;;;13.10;4.50;;;;;;;27.18;24.83;98312.45;116982;1170;69262;-71
2021/09/30 10:16:07;;;;;;;13.90;4.50;;;;;;;27.34;23.48;98309.14;116845;1178;59574;-71
2021/09/30 10:18:38;;;;;;;9.30;3.60;;;;;;;27.21;23.43;98309.68;117078;1177;59487;-73
2021/09/30 10:21:07;;;;;;;13.80;4.00;;;;;;;27.39;23.61;98310.58;116991;1177;72096;-72
2021/09/30 10:23:36;;;;;;;11.70;4.10;;;;;;;27.66;23.01;98304.89;116986;1177;68327;-74
2021/09/30 10:26:16;;;;;;;10.60;4.30;;;;;;;27.22;23.44;98304.50;116993;1177;69290;-75
2021/09/30 10:28:46;;;;;;;13.70;4.10;;;;;;;27.29;24.04;98302.02;117023;1177;59490;-73
2021/09/30 10:31:27;;;;;;;;;;;;;;;27.69;23.88;98302.58;117055;1177;59580;-75
2021/09/30 10:34:01;;;;;;;13.50;4.10;;;;;;;27.90;23.80;98305.23;117057;1177;71245;-73
2021/09/30 10:36:32;;;;;;;11.40;4.40;;;;;;;27.52;22.98;98306.27;117024;1177;69056;-73
2021/09/30 10:39:24;;;;;;;13.00;4.70;;;;;;;27.54;23.58;98300.49;117167;1177;68299;-71
2021/09/30 10:42:04;;;;;;;8.80;3.90;;;;;;;27.76;23.40;98297.39;116992;1177;59526;-72
2021/09/30 10:44:35;;;;;;;12.60;4.10;;;;;;;27.59;23.00;98294.69;117114;1177;59948;-72
2021/09/30 10:47:07;;;;;;;12.70;4.50;;;;;;;28.12;22.34;98296.20;117032;1176;71441;-73
2021/09/30 10:49:49;;;;;;;14.30;4.40;;;;;;;28.11;22.22;98286.18;116936;1177;69330;-75
2021/09/30 10:52:31;;;;;;;10.00;4.00;;;;;;;28.11;22.65;98282.31;117055;1177;68718;-75
2021/09/30 10:55:00;;;;;;;14.10;4.80;;;;;;;28.18;22.75;98280.09;116969;1177;59525;-73
2021/09/30 10:57:36;;;;;;;12.70;4.40;;;;;;;27.92;23.11;98280.70;116923;1177;59526;-73
2021/09/30 11:00:33;;;;;;;8.00;3.80;;;;;;;27.91;22.95;98282.55;116973;1176;71280;-74
2021/09/30 11:06:05;;;;;;;11.80;4.20;;;;;;;27.51;22.69;98281.69;116972;1177;69670;-75
2021/09/30 11:08:34;;;;;;;12.00;4.60;;;;;;;27.12;23.00;98280.42;116933;1177;59522;-74
2021/09/30 11:11:04;;;;;;;9.30;4.50;;;;;;;26.80;23.65;98283.10;117003;1176;59487;-71
2021/09/30 11:13:34;;;;;;;10.90;4.00;;;;;;;26.71;23.85;98282.31;116943;1170;71195;-72
2021/09/30 11:16:11;;;;;;;13.60;4.20;;;;;;;27.01;23.28;98275.38;116997;1177;69319;-74
2021/09/30 11:18:55;;;;;;;10.80;4.10;;;;;;;26.53;24.16;98277.80;117025;1177;69262;-71
2021/09/30 11:21:33;;;;;;;15.00;4.40;;;;;;;26.95;23.27;98275.17;117104;1177;59481;-75
2021/09/30 11:24:03;;;;;;;9.70;3.80;;;;;;;27.08;22.91;98276.64;116978;1177;59585;-73
2021/09/30 11:26:52;;;;;;;9.40;3.70;;;;;;;26.97;24.13;98277.42;117035;1177;71478;-73
2021/09/30 11:29:26;;;;;;;9.70;3.50;;;;;;;27.53;23.06;98273.70;117013;1177;68507;-73
2021/09/30 11:31:58;;;;;;;11.00;4.10;;;;;;;28.24;21.70;98268.45;116959;1177;68491;-74
2021/09/30 11:34:29;;;;;;;14.70;4.00;;;;;;;28.41;21.30;98265.35;116982;1177;59634;-73
2021/09/30 11:37:11;;;;;;;10.90;4.30;;;;;;;28.62;21.71;98267.53;116992;1177;59517;-71
2021/09/30 11:39:41;;;;;;;13.70;3.90;;;;;;;28.49;21.38;98268.01;117090;1177;71379;-73
2021/09/30 11:42:10;;;;;;;7.30;3.60;;;;;;;28.17;21.18;98270.77;116953;1176;68725;-73
2021/09/30 11:44:39;;;;;;;11.40;4.10;;;;;;;28.15;21.33;98270.69;117046;1176;69267;-73
2021/09/30 11:47:08;;;;;;;16.40;4.50;;;;;;;27.91;21.74;98267.36;117021;1176;59531;-73
2021/09/30 11:49:41;;;;;;;;;;;;;;;27.95;21.78;98264.41;117036;1177;59543;-72
2021/09/30 11:52:12;;;;;;;14.50;5.30;;;;;;;27.89;22.17;98260.73;117106;1177;71182;-72
2021/09/30 11:54:42;;;;;;;11.30;3.70;;;;;;;28.51;22.04;98262.59;117036;1177;69099;-71
2021/09/30 11:57:19;;;;;;;;;;;;;;;28.57;22.12;98260.52;117090;1177;69291;-72
2021/09/30 11:59:48;;;;;;;9.30;4.30;;;;;;;28.63;22.46;98258.81;116942;1177;59536;-72
2021/09/30 12:02:17;;;;;;;13.00;3.90;;;;;;;28.88;21.81;98258.91;117017;1177;59455;-72
2021/09/30 12:04:51;;;;;;;;;;;;;;;29.01;21.10;98266.28;117060;1177;71546;-73
2021/09/30 12:07:23;;;;;;;8.70;3.70;;;;;;;29.19;20.15;98262.54;117021;1177;68567;-71
2021/09/30 12:09:57;;;;;;;9.10;4.00;;;;;;;29.03;20.51;98258.89;116996;1177;68442;-73
2021/09/30 12:12:32;;;;;;;11.30;4.30;;;;;;;29.26;20.11;98255.24;117063;1177;59535;-72
2021/09/30 12:15:04;;;;;;;8.40;3.90;;;;;;;28.63;20.85;98251.98;117058;1176;59523;-73
2021/09/30 12:17:36;;;;;;;11.80;4.00;;;;;;;27.83;21.63;98259.63;117039;1177;70626;-74
2021/09/30 12:20:08;;;;;;;13.20;3.90;;;;;;;27.47;22.07;98257.65;117079;1176;69327;-73
2021/09/30 12:22:40;;;;;;;9.70;4.50;;;;;;;27.52;22.38;98256.64;117062;1177;69238;-73
2021/09/30 12:25:23;;;;;;;10.10;4.20;;;;;;;27.49;22.22;98257.09;117106;1177;59881;-73
2021/09/30 12:27:56;;;;;;;11.30;4.00;;;;;;;27.48;22.44;98250.80;117058;1176;59535;-74
2021/09/30 12:30:28;;;;;;;12.80;4.30;;;;;;;27.95;22.16;98246.84;117040;1177;70454;-73
2021/09/30 12:33:03;;;;;;;12.60;4.40;;;;;;;28.04;21.25;98248.81;117029;1177;69314;-73
2021/09/30 12:35:34;;;;;;;7.90;3.70;;;;;;;27.00;23.98;98248.54;117051;1177;69262;-73
2021/09/30 12:38:16;;;;;;;10.80;4.00;;;;;;;27.54;23.78;98245.41;117078;1176;59487;-74
2021/09/30 12:40:53;;;;;;;12.10;3.90;;;;;;;28.50;21.85;98249.21;117303;1177;59545;-74
2021/09/30 12:43:27;;;;;;;10.00;3.60;;;;;;;28.32;21.22;98246.73;117194;1177;70984;-74
2021/09/30 12:45:56;;;;;;;12.20;4.30;;;;;;;28.73;21.23;98245.89;116888;1177;68281;-74
2021/09/30 12:48:29;;;;;;;8.90;3.90;;;;;;;28.45;21.30;98243.32;117081;1177;69604;-74
2021/09/30 12:51:07;;;;;;;10.70;4.30;;;;;;;27.88;21.70;98246.21;117140;1176;59578;-73
2021/09/30 12:53:48;;;;;;;9.70;4.20;;;;;;;27.69;21.62;98242.45;117052;1174;59528;-73
2021/09/30 12:56:23;;;;;;;10.30;4.10;;;;;;;27.56;22.10;98237.25;117135;1177;71241;-74
2021/09/30 12:58:53;;;;;;;11.00;4.20;;;;;;;27.60;22.22;98230.59;117028;1177;68838;-73
2021/09/30 13:01:36;;;;;;;13.10;4.30;;;;;;;27.43;22.25;98230.45;117255;1177;68652;-74
2021/09/30 13:04:23;;;;;;;13.70;3.90;;;;;;;27.57;22.37;98228.35;117046;1176;59488;-72
2021/09/30 13:07:00;;;;;;;9.10;4.20;;;;;;;26.86;22.75;98231.85;117050;1177;59562;-73
2021/09/30 13:09:39;;;;;;;12.20;4.20;;;;;;;26.88;22.88;98228.06;117063;1177;71378;-73
2021/09/30 13:12:17;;;;;;;10.50;3.80;;;;;;;26.75;23.02;98224.64;116967;1177;69216;-72
2021/09/30 13:14:53;;;;;;;9.40;4.00;;;;;;;26.36;23.99;98230.04;116963;1177;69004;-74
2021/09/30 13:17:24;;;;;;;10.60;4.00;;;;;;;26.34;24.27;98220.56;116991;1177;59562;-73
2021/09/30 13:19:55;;;;;;;13.00;4.40;;;;;;;26.41;23.88;98224.54;117036;1176;59521;-73
2021/09/30 13:22:27;;;;;;;11.20;4.00;;;;;;;26.27;23.71;98221.42;117050;1177;71239;-73
2021/09/30 13:24:58;;;;;;;10.00;4.00;;;;;;;25.61;24.12;98219.25;117089;1177;68455;-73
2021/09/30 13:27:29;;;;;;;12.00;4.10;;;;;;;24.83;25.31;98219.60;117294;1177;68307;-73
2021/09/30 13:29:58;;;;;;;10.30;4.10;;;;;;;24.73;26.32;98218.08;117045;1177;59610;-73
2021/09/30 13:32:27;;;;;;;11.40;4.50;;;;;;;24.55;26.68;98214.57;117058;1176;59538;-73
2021/09/30 13:34:58;;;;;;;14.30;4.90;;;;;;;25.02;26.05;98210.91;116989;1177;70751;-73
2021/09/30 13:37:28;;;;;;;9.10;4.20;;;;;;;24.69;26.12;98212.21;116928;1176;68553;-72
2021/09/30 13:39:59;;;;;;;10.40;4.10;;;;;;;24.88;26.26;98209.91;117024;1177;68458;-73
2021/09/30 13:42:32;;;;;;;12.50;5.30;;;;;;;25.24;26.01;98207.02;117110;1177;59528;-74
2021/09/30 13:45:04;;;;;;;8.60;4.00;;;;;;;25.73;25.77;98207.87;117138;1176;59507;-73
2021/09/30 13:47:33;;;;;;;12.10;4.40;;;;;;;26.10;24.74;98205.52;117064;1177;71156;-73
2021/09/30 13:50:05;;;;;;;8.40;4.00;;;;;;;26.04;25.05;98205.77;116927;1177;69147;-74
2021/09/30 13:52:35;;;;;;;13.50;4.10;;;;;;;26.07;24.60;98203.88;117032;1177;69158;-73
2021/09/30 13:55:04;;;;;;;14.00;4.70;;;;;;;26.15;24.39;98203.66;116995;1177;59517;-73
2021/09/30 13:57:34;;;;;;;9.30;3.80;;;;;;;26.06;24.19;98206.73;117122;1176;59471;-73
2021/09/30 14:00:06;;;;;;;;;;;;;;;25.87;24.65;98201.14;117169;1177;71536;-73
2021/09/30 14:02:46;;;;;;;12.10;4.50;;;;;;;25.73;25.15;98200.83;117102;1176;68288;-72
2021/09/30 14:05:18;;;;;;;11.20;4.20;;;;;;;25.68;24.99;98200.77;117054;1177;69049;-74
2021/09/30 14:07:48;;;;;;;13.80;4.10;;;;;;;25.64;24.81;98197.79;117019;1177;59524;-73
2021/09/30 14:10:19;;;;;;;9.40;4.00;;;;;;;25.24;25.58;98197.09;117199;1177;59525;-73
2021/09/30 14:12:49;;;;;;;13.80;4.40;;;;;;;25.17;24.95;98198.06;117080;1176;70640;-72
2021/09/30 14:15:18;;;;;;;14.50;4.40;;;;;;;24.89;25.69;98197.55;117113;1176;68526;-73
2021/09/30 14:17:48;;;;;;;14.60;4.60;;;;;;;24.52;25.95;98204.73;117102;1177;69248;-73
2021/09/30 14:20:17;;;;;;;10.30;4.50;;;;;;;24.03;26.84;98201.08;116988;1177;59552;-73
2021/09/30 14:22:46;;;;;;;14.60;4.70;;;;;;;23.75;27.70;98195.58;117154;1177;59548;-73
2021/09/30 14:25:15;;;;;;;12.80;4.40;;;;;;;23.05;28.32;98195.48;117146;1177;71882;-72
2021/09/30 14:27:44;;;;;;;12.90;4.50;;;;;;;22.40;29.50;98191.24;117160;1177;68333;-74
2021/09/30 14:30:13;;;;;;;12.10;5.00;;;;;;;21.80;30.63;98190.79;117077;1176;68205;-71
2021/09/30 14:33:02;;;;;;;16.00;5.00;;;;;;;21.39;31.85;98193.73;117139;1177;59532;-72
2021/09/30 14:35:31;;;;;;;13.80;5.10;;;;;;;20.92;32.47;98192.55;117090;1177;59532;-73
2021/09/30 14:38:01;;;;;;;11.00;4.70;;;;;;;20.57;32.76;98190.93;117049;1177;70529;-73
2021/09/30 14:40:30;;;;;;;14.20;4.40;;;;;;;20.55;35.04;98192.70;117174;1176;69216;-73
2021/09/30 14:42:58;;;;;;;10.80;4.40;;;;;;;20.74;35.52;98190.67;117025;1177;68497;-72
2021/09/30 14:45:28;;;;;;;14.50;5.10;;;;;;;20.86;36.37;98190.45;116909;1177;59525;-70
2021/09/30 14:47:57;;;;;;;16.20;4.70;;;;;;;20.80;37.13;98192.59;117119;1176;59534;-73
2021/09/30 14:50:26;;;;;;;14.20;4.70;;;;;;;20.51;38.32;98198.41;117141;1177;71357;-70
2021/09/30 14:52:55;;;;;;;15.60;4.80;;;;;;;20.39;39.71;98199.20;117132;1176;68512;-73